createdAt,value
2017-02-28T00:03:30.122Z,85.95
2017-02-28T00:08:26.349Z,85.91
2017-02-28T00:13:22.751Z,86.38
2017-02-28T00:18:19.202Z,85.53
2017-02-28T00:23:15.522Z,86.14
2017-02-28T00:28:11.989Z,86.95
2017-02-28T00:33:08.400Z,88.00
2017-02-28T00:38:05.118Z,87.90
2017-02-28T00:43:01.724Z,87.90
2017-02-28T00:47:58.137Z,90.19
2017-02-28T00:52:54.462Z,91.47
2017-02-28T00:57:50.882Z,92.42
2017-02-28T01:02:47.321Z,91.28
2017-02-28T01:07:43.670Z,90.61
2017-02-28T01:12:40.104Z,90.05
2017-02-28T01:17:36.436Z,89.09
2017-02-28T01:22:32.904Z,89.28
2017-02-28T01:27:29.153Z,90.47
2017-02-28T01:32:25.386Z,90.57
2017-02-28T01:37:21.684Z,90.28
2017-02-28T01:42:18.008Z,89.24
2017-02-28T01:47:14.396Z,90.76
2017-02-28T01:52:11.383Z,91.33
2017-02-28T02:02:07.934Z,93.70
2017-02-28T02:07:04.091Z,92.94
2017-02-28T02:12:00.501Z,93.99
2017-02-28T02:16:56.824Z,93.32
2017-02-28T02:21:53.490Z,94.08
2017-02-28T02:26:50.100Z,93.13
2017-02-28T02:31:46.534Z,91.89
2017-02-28T02:36:42.966Z,97.88
2017-02-28T02:41:39.455Z,99.99
2017-02-28T02:46:35.761Z,99.99
2017-02-28T02:51:32.337Z,99.99
2017-02-28T02:56:29.199Z,99.99
2017-02-28T03:01:25.391Z,99.99
2017-02-28T03:06:21.672Z,99.99
2017-02-28T03:11:17.952Z,99.99
2017-02-28T03:16:14.382Z,99.99
2017-02-28T03:21:10.633Z,99.99
2017-02-28T03:26:06.994Z,99.99
2017-02-28T03:31:03.231Z,99.01
2017-02-28T03:35:59.679Z,97.40
2017-02-28T03:40:56.129Z,97.59
2017-02-28T03:45:52.426Z,98.07
2017-02-28T03:50:49.653Z,98.30
2017-02-28T03:55:46.167Z,98.68
2017-02-28T04:00:42.678Z,97.59
2017-02-28T04:05:39.846Z,97.59
2017-02-28T04:10:36.452Z,97.69
2017-02-28T04:15:33.011Z,96.83
2017-02-28T04:20:29.425Z,95.69
2017-02-28T04:25:26.018Z,96.08
2017-02-28T04:30:22.345Z,96.59
2017-02-28T04:35:18.753Z,96.22
2017-02-28T04:40:14.821Z,94.74
2017-02-28T04:45:12.453Z,93.89
2017-02-28T04:50:09.123Z,93.80
2017-02-28T04:55:05.634Z,93.51
2017-02-28T05:00:02.289Z,92.85
2017-02-28T05:04:58.862Z,92.76
2017-02-28T05:09:55.522Z,91.42
2017-02-28T05:14:52.040Z,90.43
2017-02-28T05:19:49.196Z,90.52
2017-02-28T05:24:45.892Z,89.20
2017-02-28T05:29:42.177Z,90.48
2017-02-28T05:34:38.577Z,91.05
2017-02-28T05:39:35.083Z,90.57
2017-02-28T05:44:31.904Z,89.76
2017-02-28T05:49:28.516Z,89.10
2017-02-28T05:54:24.935Z,89.58
2017-02-28T05:59:21.432Z,89.39
2017-02-28T06:04:17.841Z,89.58
2017-02-28T06:09:14.563Z,88.53
2017-02-28T06:14:11.003Z,86.72
2017-02-28T06:19:07.443Z,85.97
2017-02-28T06:24:03.993Z,85.78
2017-02-28T06:29:00.332Z,85.97
2017-02-28T06:33:56.796Z,85.68
2017-02-28T06:38:53.281Z,85.11
2017-02-28T06:43:49.862Z,84.92
2017-02-28T06:48:46.116Z,83.40
2017-02-28T06:53:43.705Z,83.69
2017-02-28T06:58:39.963Z,82.55
2017-02-28T07:03:36.517Z,80.75
2017-02-28T07:08:33.176Z,80.32
2017-02-28T07:13:29.916Z,79.61
2017-02-28T07:18:26.254Z,80.18
2017-02-28T07:23:22.365Z,80.56
2017-02-28T07:28:18.816Z,81.26
2017-02-28T07:33:15.233Z,80.46
2017-02-28T07:38:11.708Z,82.08
2017-02-28T07:43:07.931Z,81.60
2017-02-28T07:48:04.516Z,79.61
2017-02-28T07:53:01.052Z,80.03
2017-02-28T07:57:58.771Z,79.65
2017-02-28T08:02:55.517Z,80.37
2017-02-28T08:07:51.941Z,79.84
2017-02-28T08:12:48.584Z,79.65
2017-02-28T08:17:45.247Z,79.36
2017-02-28T08:22:41.851Z,78.61
2017-02-28T08:27:38.310Z,78.13
2017-02-28T08:32:34.701Z,78.70
2017-02-28T08:37:30.852Z,79.65
2017-02-28T08:42:27.225Z,79.08
2017-02-28T08:47:23.848Z,79.65
2017-02-28T08:52:20.344Z,81.60
2017-02-28T08:57:16.740Z,81.70
2017-02-28T09:02:14.292Z,81.88
2017-02-28T09:07:10.499Z,81.65
2017-02-28T09:12:06.952Z,83.36
2017-02-28T09:17:03.357Z,85.02
2017-02-28T09:22:00.771Z,84.83
2017-02-28T09:26:57.369Z,85.16
2017-02-28T09:31:55.393Z,81.65
2017-02-28T09:36:52.474Z,79.31
2017-02-28T09:41:49.791Z,77.98
2017-02-28T09:46:46.854Z,77.89
2017-02-28T09:51:43.720Z,76.27
2017-02-28T09:56:40.305Z,75.55
2017-02-28T10:01:36.927Z,74.69
2017-02-28T10:06:33.432Z,76.18
2017-02-28T10:11:29.714Z,76.27
2017-02-28T10:16:25.878Z,76.65
2017-02-28T10:21:22.277Z,76.46
2017-02-28T10:26:18.891Z,74.31
2017-02-28T10:31:15.306Z,74.60
2017-02-28T10:36:11.760Z,73.27
2017-02-28T10:41:08.492Z,72.89
2017-02-28T10:46:05.768Z,72.60
2017-02-28T10:51:03.194Z,72.13
2017-02-28T10:55:59.537Z,71.46
2017-02-28T11:00:56.002Z,71.41
2017-02-28T11:05:52.561Z,70.99
2017-02-28T11:10:49.400Z,69.98
2017-02-28T11:15:46.387Z,67.60
2017-02-28T11:20:43.006Z,69.41
2017-02-28T11:25:39.464Z,69.69
2017-02-28T11:30:35.497Z,71.22
2017-02-28T11:35:31.831Z,74.41
2017-02-28T11:40:28.914Z,77.17
2017-02-28T11:45:25.737Z,74.51
2017-02-28T11:50:22.476Z,73.78
2017-02-28T11:55:20.408Z,67.29
2017-02-28T12:00:20.440Z,68.49
2017-02-28T12:05:16.453Z,68.21
2017-02-28T12:10:12.602Z,68.40
2017-02-28T12:15:10.536Z,66.43
2017-02-28T12:20:07.358Z,62.85
2017-02-28T12:25:03.905Z,61.38
2017-02-28T12:30:00.436Z,61.86
2017-02-28T12:34:56.145Z,63.45
2017-02-28T12:39:52.498Z,64.50
2017-02-28T12:44:48.601Z,64.78
2017-02-28T12:49:44.865Z,67.25
2017-02-28T12:54:41.018Z,67.50
2017-02-28T12:59:37.707Z,67.07
2017-02-28T13:04:34.297Z,65.45
2017-02-28T13:09:30.705Z,64.21
2017-02-28T13:14:27.398Z,62.49
2017-02-28T13:19:24.565Z,61.58
2017-02-28T13:24:21.420Z,62.30
2017-02-28T13:29:18.676Z,62.34
2017-02-28T13:34:15.327Z,62.05
2017-02-28T13:39:12.005Z,63.10
2017-02-28T13:44:08.626Z,64.08
2017-02-28T13:49:05.224Z,63.20
2017-02-28T13:54:01.542Z,64.05
2017-02-28T13:58:58.294Z,62.05
2017-02-28T14:03:54.774Z,62.05
2017-02-28T14:08:51.528Z,61.90
2017-02-28T14:13:48.045Z,61.32
2017-02-28T14:18:45.247Z,60.27
2017-02-28T14:23:41.597Z,61.86
2017-02-28T14:28:37.687Z,63.29
2017-02-28T14:33:34.438Z,63.67
2017-02-28T14:38:30.529Z,63.29
2017-02-28T14:43:27.318Z,61.77
2017-02-28T14:48:23.459Z,61.29
2017-02-28T14:53:20.108Z,61.55
2017-02-28T14:58:16.787Z,62.81
2017-02-28T15:03:12.943Z,63.35
2017-02-28T15:08:09.228Z,64.50
2017-02-28T15:13:05.634Z,64.02
2017-02-28T15:18:02.168Z,64.02
2017-02-28T15:22:58.661Z,63.35
2017-02-28T15:27:55.462Z,63.73
2017-02-28T15:32:51.963Z,64.31
2017-02-28T15:37:48.363Z,65.54
2017-02-28T15:42:45.131Z,69.98
2017-02-28T15:47:42.188Z,72.60
2017-02-28T15:52:38.088Z,74.03
2017-02-28T15:57:34.287Z,74.79
2017-02-28T16:02:30.629Z,75.64
2017-02-28T16:07:26.868Z,76.97
2017-02-28T16:12:23.377Z,76.88
2017-02-28T16:17:19.876Z,77.64
2017-02-28T16:22:16.241Z,80.35
2017-02-28T16:27:12.485Z,83.59
2017-02-28T16:32:08.740Z,88.01
2017-02-28T16:37:04.899Z,89.33
2017-02-28T16:42:01.371Z,90.76
2017-02-28T16:46:58.018Z,90.19
2017-02-28T16:51:54.315Z,90.95
2017-02-28T16:56:50.938Z,91.04
2017-02-28T17:01:47.213Z,90.38
2017-02-28T17:06:44.517Z,90.28
2017-02-28T17:11:40.907Z,91.71
2017-02-28T17:16:37.283Z,91.04
2017-02-28T17:21:33.848Z,90.66
2017-02-28T17:26:30.544Z,94.42
2017-02-28T17:31:26.776Z,99.99
2017-02-28T17:36:22.704Z,99.99
2017-02-28T17:41:18.657Z,99.99
2017-02-28T17:46:14.798Z,99.99
2017-02-28T17:51:11.083Z,99.99
2017-02-28T17:56:07.417Z,99.99
2017-02-28T18:01:03.539Z,99.99
2017-02-28T18:05:59.893Z,99.99
2017-02-28T18:10:56.972Z,99.99
2017-02-28T18:15:53.113Z,99.99
2017-02-28T18:20:49.268Z,99.99
2017-02-28T18:25:45.548Z,99.99
2017-02-28T18:30:41.983Z,99.99
2017-02-28T18:35:37.899Z,99.99
2017-02-28T18:40:34.478Z,99.99
2017-02-28T18:45:31.086Z,99.99
2017-02-28T18:50:26.993Z,99.99
2017-02-28T18:55:23.339Z,99.99
2017-02-28T19:00:19.887Z,99.99
2017-02-28T19:05:16.694Z,99.99
2017-02-28T19:10:13.074Z,99.99
2017-02-28T19:15:09.436Z,99.99
2017-02-28T19:20:06.572Z,99.99
2017-02-28T19:25:02.969Z,99.99
2017-02-28T19:29:59.224Z,99.99
2017-02-28T19:34:55.494Z,99.99
2017-02-28T19:39:52.073Z,99.99
2017-02-28T19:44:48.419Z,99.99
2017-02-28T19:49:44.870Z,99.99
2017-02-28T19:54:41.321Z,99.99
2017-02-28T19:59:37.712Z,99.99
2017-02-28T20:04:33.904Z,99.99
2017-02-28T20:09:30.502Z,99.99
2017-02-28T20:14:26.806Z,99.99
2017-02-28T20:19:22.841Z,99.99
2017-02-28T20:24:19.989Z,99.99
2017-02-28T20:29:16.717Z,99.99
2017-02-28T20:34:13.295Z,99.99
2017-02-28T20:39:09.617Z,99.99
2017-02-28T20:44:06.931Z,99.99
2017-02-28T20:49:04.057Z,99.99
2017-02-28T20:54:00.167Z,99.99
2017-02-28T20:58:56.604Z,99.99
2017-02-28T21:03:53.113Z,99.99
2017-02-28T21:08:49.487Z,99.99
2017-02-28T21:13:45.934Z,99.99
2017-02-28T21:18:43.188Z,99.99
2017-02-28T21:23:39.073Z,99.99
2017-02-28T21:28:36.163Z,99.99
2017-02-28T21:33:32.747Z,99.99
2017-02-28T21:38:29.504Z,99.99
2017-02-28T21:43:26.151Z,99.99
2017-02-28T21:48:22.595Z,99.99
2017-02-28T21:53:18.944Z,99.99
2017-02-28T21:58:15.510Z,99.99
2017-02-28T22:03:11.779Z,99.99
2017-02-28T22:08:08.626Z,99.99
2017-02-28T22:13:05.926Z,99.99
2017-02-28T22:18:02.531Z,99.99
2017-02-28T22:22:58.986Z,99.99
2017-02-28T22:27:55.498Z,99.99
2017-02-28T22:32:51.504Z,99.99
2017-02-28T22:37:48.014Z,99.99
2017-02-28T22:42:44.418Z,99.99
2017-02-28T22:47:41.627Z,99.99
2017-02-28T22:52:39.021Z,99.99
2017-02-28T22:57:35.392Z,99.99
2017-02-28T23:02:31.828Z,99.99
2017-02-28T23:07:28.990Z,99.99
2017-02-28T23:12:25.223Z,99.99
2017-02-28T23:17:21.455Z,99.99
2017-02-28T23:22:17.978Z,99.99
2017-02-28T23:27:14.602Z,99.99
2017-02-28T23:32:11.789Z,99.99
2017-02-28T23:37:08.533Z,99.99
2017-02-28T23:42:05.121Z,99.99
2017-02-28T23:47:01.333Z,99.99
2017-02-28T23:51:57.653Z,99.99
2017-02-28T23:56:54.033Z,99.99
